Time;durP1;ratioP1;P1;durP2;ratioP2;P2;SDS_P1;SDS_P2;PMS_P1;PMS_P2;Temp;Humidity;BMP_temperature;BMP_pressure;BME280_temperature;BME280_humidity;BME280_pressure;Samples;Min_cycle;Max_cycle;Signal;HPM_P1;HPM_P2
2024/02/16 00:02:01;;;;;;;6.32;4.53;;;4.50;99.90;;;;;;5027220;28;20565;-34
2024/02/16 00:04:27;;;;;;;5.68;4.60;;;4.50;99.90;;;;;;5021394;28;20534;-35
2024/02/16 00:06:53;;;;;;;7.50;4.80;;;4.60;99.90;;;;;;5027868;28;20117;-38
2024/02/16 00:09:18;;;;;;;6.32;4.78;;;4.60;99.90;;;;;;5017433;28;20403;-32
2024/02/16 00:11:44;;;;;;;10.32;5.43;;;4.60;99.90;;;;;;5033920;28;20036;-32
2024/02/16 00:14:10;;;;;;;6.95;4.95;;;4.70;99.90;;;;;;5028621;28;20025;-33
2024/02/16 00:16:36;;;;;;;6.00;4.55;;;4.70;99.90;;;;;;5024154;28;20071;-39
2024/02/16 00:19:01;;;;;;;7.25;4.63;;;4.70;99.90;;;;;;5025755;28;20103;-32
2024/02/16 00:21:27;;;;;;;6.85;4.68;;;4.70;99.90;;;;;;5028334;28;20627;-36
2024/02/16 00:23:54;;;;;;;8.23;4.65;;;4.70;99.90;;;;;;5022222;28;20503;-37
2024/02/16 00:26:21;;;;;;;6.88;4.30;;;4.80;99.90;;;;;;5025500;28;20082;-33
2024/02/16 00:28:46;;;;;;;5.97;4.45;;;4.50;99.90;;;;;;5018359;28;20158;-35
2024/02/16 00:31:12;;;;;;;6.07;4.68;;;4.40;99.90;;;;;;5026250;28;20116;-33
2024/02/16 00:33:37;;;;;;;8.98;4.30;;;4.40;99.90;;;;;;5024859;28;20064;-33
2024/02/16 00:36:03;;;;;;;6.50;4.35;;;4.30;99.90;;;;;;5027048;28;20053;-32
2024/02/16 00:38:29;;;;;;;6.63;4.80;;;4.40;99.90;;;;;;5027996;28;20028;-34
2024/02/16 00:40:54;;;;;;;4.32;3.90;;;4.40;99.90;;;;;;5025179;28;20041;-39
2024/02/16 00:43:20;;;;;;;6.03;4.70;;;4.40;99.90;;;;;;5030924;28;20058;-42
2024/02/16 00:45:45;;;;;;;6.18;4.68;;;4.40;99.90;;;;;;5028213;28;20033;-42
2024/02/16 00:48:11;;;;;;;6.82;4.13;;;4.40;99.90;;;;;;5029303;28;20021;-42
2024/02/16 00:50:37;;;;;;;6.05;4.13;;;4.40;99.90;;;;;;5027955;28;20280;-43
2024/02/16 00:53:04;;;;;;;4.88;4.13;;;4.30;99.90;;;;;;5032418;28;20037;-40
2024/02/16 00:55:30;;;;;;;6.18;3.47;;;4.40;99.90;;;;;;5035368;28;20471;-43
2024/02/16 00:57:56;;;;;;;5.53;4.15;;;4.40;99.90;;;;;;5024147;28;20057;-40
2024/02/16 01:00:23;;;;;;;7.13;4.30;;;4.50;99.90;;;;;;5024423;28;20479;-41
2024/02/16 01:02:49;;;;;;;4.50;3.58;;;4.50;99.90;;;;;;5021158;28;20034;-42
2024/02/16 01:05:17;;;;;;;4.63;4.22;;;4.50;99.90;;;;;;5020864;28;20033;-37
2024/02/16 01:07:43;;;;;;;4.60;4.18;;;4.40;99.90;;;;;;5030685;28;20029;-42
2024/02/16 01:10:09;;;;;;;4.25;3.85;;;4.30;99.90;;;;;;5029890;28;20036;-40
2024/02/16 01:12:35;;;;;;;6.68;4.05;;;4.20;99.90;;;;;;5027294;28;20132;-42
2024/02/16 01:15:00;;;;;;;5.28;4.20;;;4.30;99.90;;;;;;5025831;28;20024;-40
2024/02/16 01:17:26;;;;;;;4.85;4.15;;;4.30;99.90;;;;;;5027694;28;20032;-41
2024/02/16 01:19:51;;;;;;;5.85;3.55;;;4.30;99.90;;;;;;5024569;28;20494;-40
2024/02/16 01:22:18;;;;;;;6.85;4.15;;;4.00;99.90;;;;;;5024183;28;20039;-41
2024/02/16 01:24:44;;;;;;;5.88;4.60;;;4.00;99.90;;;;;;5026454;28;20033;-42
2024/02/16 01:27:10;;;;;;;8.15;4.78;;;4.10;99.90;;;;;;5020870;28;20107;-42
2024/02/16 01:29:36;;;;;;;6.28;4.80;;;4.20;99.90;;;;;;5025129;28;20041;-33
2024/02/16 01:32:02;;;;;;;5.55;4.28;;;4.20;99.90;;;;;;5021408;28;20384;-41
2024/02/16 01:34:30;;;;;;;5.20;4.65;;;4.30;99.90;;;;;;5022467;28;20033;-40
2024/02/16 01:36:56;;;;;;;5.43;3.95;;;4.40;99.90;;;;;;5020138;28;20051;-38
2024/02/16 01:39:21;;;;;;;5.15;4.03;;;4.40;99.90;;;;;;5027737;28;20627;-40
2024/02/16 01:41:47;;;;;;;5.82;4.22;;;4.50;99.90;;;;;;5019938;28;20033;-41
2024/02/16 01:44:15;;;;;;;4.10;3.70;;;4.50;99.90;;;;;;5020747;28;20462;-40
2024/02/16 01:46:42;;;;;;;7.95;4.43;;;4.40;99.90;;;;;;5027766;28;20513;-42
2024/02/16 01:49:07;;;;;;;5.63;4.40;;;4.50;99.90;;;;;;5026314;28;20056;-41
2024/02/16 01:51:35;;;;;;;5.35;4.05;;;4.40;99.90;;;;;;5019710;28;20043;-40
2024/02/16 01:54:01;;;;;;;6.50;4.10;;;4.50;99.90;;;;;;5025125;28;20540;-40
2024/02/16 01:56:27;;;;;;;4.93;4.28;;;4.50;99.90;;;;;;5021690;28;20104;-39
2024/02/16 01:58:53;;;;;;;5.05;4.22;;;4.50;99.90;;;;;;5025974;28;20479;-38
2024/02/16 02:01:18;;;;;;;4.38;3.78;;;4.50;99.90;;;;;;5020203;28;20036;-40
2024/02/16 02:03:44;;;;;;;4.20;3.72;;;4.60;99.90;;;;;;5010595;28;20754;-41
2024/02/16 02:06:10;;;;;;;4.63;3.58;;;4.60;99.90;;;;;;5024019;28;20101;-39
2024/02/16 02:08:36;;;;;;;4.78;4.05;;;4.40;99.90;;;;;;5029090;28;20112;-40
2024/02/16 02:11:02;;;;;;;5.75;3.90;;;4.40;99.90;;;;;;5021385;28;20034;-41
2024/02/16 02:13:27;;;;;;;4.38;3.55;;;4.50;99.90;;;;;;5020498;28;20033;-39
2024/02/16 02:15:54;;;;;;;4.47;3.33;;;4.40;99.90;;;;;;5024299;28;20104;-39
2024/02/16 02:18:20;;;;;;;5.47;3.88;;;4.40;99.90;;;;;;5024020;28;20029;-38
2024/02/16 02:20:45;;;;;;;5.30;3.80;;;4.40;99.90;;;;;;5027727;28;20017;-39
2024/02/16 02:23:11;;;;;;;6.15;4.22;;;4.40;99.90;;;;;;5023649;28;20034;-41
2024/02/16 02:25:37;;;;;;;4.60;3.60;;;4.40;99.90;;;;;;5022686;28;20026;-40
2024/02/16 02:28:03;;;;;;;4.72;3.60;;;4.50;99.90;;;;;;5027709;28;20033;-40
2024/02/16 02:30:28;;;;;;;7.25;5.22;;;4.40;99.90;;;;;;5020874;28;20037;-39
2024/02/16 02:32:54;;;;;;;6.30;4.75;;;4.40;99.90;;;;;;5003808;28;20129;-36
2024/02/16 02:35:19;;;;;;;6.03;4.65;;;4.30;99.90;;;;;;5016763;28;20491;-40
2024/02/16 02:37:45;;;;;;;5.85;5.25;;;4.30;99.90;;;;;;5029435;28;20095;-39
2024/02/16 02:43:33;;;;;;;4.63;4.03;;;4.30;99.90;;;;;;5021640;28;20099;-41
2024/02/16 02:45:58;;;;;;;3.78;3.40;;;4.30;99.90;;;;;;5026533;28;20021;-39
2024/02/16 02:48:24;;;;;;;4.32;3.67;;;4.20;99.90;;;;;;5020968;28;20462;-41
2024/02/16 02:50:49;;;;;;;3.58;3.25;;;4.30;99.90;;;;;;5017544;28;20583;-37
2024/02/16 02:53:15;;;;;;;4.15;3.30;;;4.30;99.90;;;;;;5028060;28;20095;-39
2024/02/16 02:55:41;;;;;;;4.22;3.80;;;4.30;99.90;;;;;;5026025;28;20031;-38
2024/02/16 02:58:07;;;;;;;4.10;3.80;;;4.30;99.90;;;;;;5027326;28;20033;-40
2024/02/16 03:00:32;;;;;;;4.55;3.50;;;4.30;99.90;;;;;;5022348;28;20049;-33
2024/02/16 03:02:58;;;;;;;4.30;3.60;;;4.30;99.90;;;;;;5024810;28;20060;-33
2024/02/16 03:05:23;;;;;;;5.95;4.07;;;4.30;99.90;;;;;;5024744;28;20030;-36
2024/02/16 03:07:49;;;;;;;5.78;3.78;;;4.30;99.90;;;;;;5023131;28;20031;-37
2024/02/16 03:10:20;;;;;;;4.15;3.08;;;4.40;99.90;;;;;;5029805;28;20025;-40
2024/02/16 03:12:46;;;;;;;6.80;3.33;;;4.30;99.90;;;;;;5016194;28;20043;-35
2024/02/16 03:15:11;;;;;;;4.07;2.38;;;4.10;99.90;;;;;;5021436;28;20022;-34
2024/02/16 03:17:37;;;;;;;6.68;2.95;;;3.70;99.90;;;;;;5031487;28;20442;-35
2024/02/16 03:20:03;;;;;;;4.95;4.05;;;3.50;99.90;;;;;;5026524;28;20026;-33
2024/02/16 03:22:28;;;;;;;8.68;4.25;;;3.70;99.90;;;;;;5018285;28;20029;-33
2024/02/16 03:24:54;;;;;;;6.20;4.90;;;3.80;99.90;;;;;;5023841;28;20045;-35
2024/02/16 03:27:19;;;;;;;22.42;11.05;;;3.90;99.90;;;;;;5019218;28;20112;-35
2024/02/16 03:29:45;;;;;;;7.35;5.05;;;3.90;99.90;;;;;;5030086;28;20120;-36
2024/02/16 03:32:11;;;;;;;9.57;5.68;;;4.00;99.90;;;;;;5025765;28;20030;-33
2024/02/16 03:34:36;;;;;;;4.88;3.95;;;4.00;99.90;;;;;;5025350;28;20084;-38
2024/02/16 03:37:02;;;;;;;4.85;3.85;;;4.10;99.90;;;;;;5019238;28;20034;-37
2024/02/16 03:39:27;;;;;;;5.55;4.00;;;4.10;99.90;;;;;;5023291;28;20032;-37
2024/02/16 03:41:53;;;;;;;9.27;4.20;;;4.10;99.90;;;;;;5024353;28;20029;-37
2024/02/16 03:44:19;;;;;;;5.38;3.78;;;4.10;99.90;;;;;;5026741;28;20107;-34
2024/02/16 03:46:45;;;;;;;4.47;3.25;;;4.10;99.90;;;;;;5022793;28;20112;-33
2024/02/16 03:49:10;;;;;;;3.65;3.30;;;4.10;99.90;;;;;;5025976;28;20148;-35
2024/02/16 03:51:37;;;;;;;7.80;4.50;;;4.10;99.90;;;;;;5022301;28;20435;-34
2024/02/16 03:54:04;;;;;;;5.40;3.85;;;4.10;99.90;;;;;;5026118;28;20033;-34
2024/02/16 03:56:29;;;;;;;4.78;3.80;;;4.00;99.90;;;;;;5025322;28;20057;-37
2024/02/16 03:58:55;;;;;;;5.07;4.30;;;4.10;99.90;;;;;;5018997;28;20060;-36
2024/02/16 04:01:21;;;;;;;13.00;11.55;;;4.00;99.90;;;;;;5018572;28;20045;-35
2024/02/16 04:03:47;;;;;;;7.47;6.78;;;4.10;99.90;;;;;;5028336;28;20494;-35
2024/02/16 04:06:13;;;;;;;6.55;5.88;;;4.00;99.90;;;;;;5018321;28;20113;-36
2024/02/16 04:08:39;;;;;;;5.40;4.63;;;4.00;99.90;;;;;;5028865;28;20649;-35
2024/02/16 04:11:04;;;;;;;7.40;4.25;;;4.10;99.90;;;;;;5021496;28;20104;-33
2024/02/16 04:13:32;;;;;;;4.57;3.78;;;4.00;99.90;;;;;;5023941;28;20534;-38
2024/02/16 04:15:58;;;;;;;4.13;3.63;;;4.00;99.90;;;;;;5025925;28;20416;-35
2024/02/16 04:18:23;;;;;;;4.63;3.40;;;4.00;99.90;;;;;;5033289;28;20032;-34
2024/02/16 04:20:49;;;;;;;6.80;3.92;;;3.90;99.90;;;;;;5024775;28;20483;-36
2024/02/16 04:23:14;;;;;;;5.05;3.50;;;3.90;99.90;;;;;;5034166;28;20108;-39
2024/02/16 04:25:40;;;;;;;7.38;4.00;;;3.90;99.90;;;;;;5038463;28;20071;-33
2024/02/16 04:28:05;;;;;;;4.82;3.00;;;4.00;99.90;;;;;;5028993;28;20483;-36
2024/02/16 04:30:31;;;;;;;4.90;4.38;;;4.00;99.90;;;;;;5026416;28;20510;-39
2024/02/16 04:32:57;;;;;;;6.07;3.70;;;4.10;99.90;;;;;;5033572;28;20041;-36
2024/02/16 04:35:22;;;;;;;4.68;3.03;;;4.00;99.90;;;;;;5031797;28;20466;-34
2024/02/16 04:37:48;;;;;;;3.70;3.33;;;4.00;99.90;;;;;;5032646;28;20035;-33
2024/02/16 04:40:14;;;;;;;4.07;3.65;;;4.10;99.90;;;;;;5028707;28;20622;-35
2024/02/16 04:42:42;;;;;;;3.65;3.30;;;4.10;99.90;;;;;;5022837;28;20030;-36
2024/02/16 04:45:12;;;;;;;4.97;3.78;;;4.10;99.90;;;;;;5021256;28;20053;-35
2024/02/16 04:47:37;;;;;;;6.28;3.88;;;4.10;99.90;;;;;;5027877;28;20034;-37
2024/02/16 04:50:03;;;;;;;5.95;4.18;;;4.00;99.90;;;;;;5021936;28;20029;-35
2024/02/16 04:52:29;;;;;;;5.82;4.15;;;4.10;99.90;;;;;;5029108;28;20566;-35
2024/02/16 04:54:54;;;;;;;4.78;3.55;;;4.10;99.90;;;;;;5027203;28;20391;-34
2024/02/16 04:57:20;;;;;;;4.97;3.40;;;4.10;99.90;;;;;;5029508;28;20037;-36
2024/02/16 04:59:46;;;;;;;6.65;3.45;;;4.10;99.90;;;;;;5025575;28;20029;-33
2024/02/16 05:02:12;;;;;;;3.35;3.05;;;4.10;99.90;;;;;;5029375;28;20051;-35
2024/02/16 05:04:37;;;;;;;5.13;3.63;;;4.10;99.90;;;;;;5026916;28;20466;-36
2024/02/16 05:07:04;;;;;;;4.88;3.30;;;4.10;99.90;;;;;;5027378;28;20092;-34
2024/02/16 05:09:32;;;;;;;5.20;3.50;;;4.10;99.90;;;;;;5022938;28;20511;-35
2024/02/16 05:11:58;;;;;;;5.95;3.40;;;4.10;99.90;;;;;;5023772;28;20031;-35
2024/02/16 05:14:23;;;;;;;4.20;3.55;;;4.10;99.90;;;;;;5024852;28;20037;-39
2024/02/16 05:16:50;;;;;;;3.67;3.22;;;4.10;99.90;;;;;;5022251;28;20021;-39
2024/02/16 05:19:16;;;;;;;5.72;4.03;;;4.10;99.90;;;;;;5022260;28;20075;-36
2024/02/16 05:21:42;;;;;;;4.18;3.40;;;4.00;99.90;;;;;;5024150;28;20652;-40
2024/02/16 05:24:07;;;;;;;7.80;4.63;;;4.00;99.90;;;;;;5028296;28;20038;-41
2024/02/16 05:26:34;;;;;;;7.47;3.85;;;4.00;99.90;;;;;;5029917;28;20037;-41
2024/02/16 05:28:59;;;;;;;7.35;3.83;;;3.90;99.90;;;;;;5025122;28;20060;-42
2024/02/16 05:31:25;;;;;;;7.13;3.72;;;3.90;99.90;;;;;;5027055;28;20037;-35
2024/02/16 05:33:51;;;;;;;5.53;4.00;;;3.90;99.90;;;;;;5024572;28;20025;-37
2024/02/16 05:36:20;;;;;;;4.75;3.40;;;3.90;99.90;;;;;;5025963;28;20041;-33
2024/02/16 05:38:46;;;;;;;5.13;3.88;;;3.80;99.90;;;;;;5023762;28;20033;-34
2024/02/16 05:41:12;;;;;;;6.22;3.67;;;3.80;99.90;;;;;;5028182;28;20099;-33
2024/02/16 05:43:38;;;;;;;6.78;3.70;;;3.80;99.90;;;;;;5023466;28;20414;-33
2024/02/16 05:46:07;;;;;;;8.98;3.95;;;3.80;99.90;;;;;;5020613;28;20116;-35
2024/02/16 05:48:39;;;;;;;8.85;3.72;;;3.80;99.90;;;;;;5026582;28;20108;-33
2024/02/16 05:51:05;;;;;;;5.38;3.83;;;3.80;99.90;;;;;;5026915;28;20041;-37
2024/02/16 05:53:33;;;;;;;5.65;3.78;;;3.70;99.90;;;;;;5023965;28;20487;-35
2024/02/16 05:55:58;;;;;;;4.85;3.50;;;3.60;99.90;;;;;;5027040;28;20025;-32
2024/02/16 05:58:24;;;;;;;4.18;3.63;;;3.60;99.90;;;;;;5020162;28;20026;-33
2024/02/16 06:00:50;;;;;;;4.97;3.55;;;3.50;99.90;;;;;;5017846;28;20140;-33
2024/02/16 06:03:16;;;;;;;5.90;3.47;;;3.60;99.90;;;;;;5023838;28;20030;-33
2024/02/16 06:05:44;;;;;;;4.07;3.13;;;3.60;99.90;;;;;;5029641;28;20395;-32
2024/02/16 06:08:10;;;;;;;4.40;3.92;;;3.60;99.90;;;;;;5022052;28;20467;-33
2024/02/16 06:10:36;;;;;;;3.80;3.28;;;3.60;99.90;;;;;;5019903;28;20029;-33
2024/02/16 06:13:01;;;;;;;4.13;3.33;;;3.60;99.90;;;;;;5028531;28;20043;-38
2024/02/16 06:15:27;;;;;;;6.43;3.88;;;3.50;99.90;;;;;;5026990;28;20029;-34
2024/02/16 06:17:52;;;;;;;4.78;4.15;;;3.50;99.90;;;;;;5026406;28;20034;-40
2024/02/16 06:20:18;;;;;;;5.47;3.78;;;3.50;99.90;;;;;;5022516;28;20116;-35
2024/02/16 06:22:44;;;;;;;6.03;3.95;;;3.50;99.90;;;;;;5023916;28;20034;-35
2024/02/16 06:25:09;;;;;;;4.80;3.95;;;3.50;99.90;;;;;;5029624;28;20718;-36
2024/02/16 06:27:35;;;;;;;4.65;3.97;;;3.40;99.90;;;;;;5024170;28;20084;-34
2024/02/16 06:30:03;;;;;;;4.95;3.90;;;3.40;99.90;;;;;;5025257;28;20032;-33
2024/02/16 06:32:31;;;;;;;6.07;4.20;;;3.40;99.90;;;;;;5022135;28;20744;-42
2024/02/16 06:34:56;;;;;;;5.07;4.30;;;3.40;99.90;;;;;;5022790;28;20051;-38
2024/02/16 06:37:22;;;;;;;5.50;4.18;;;3.40;99.90;;;;;;5022818;28;20021;-38
2024/02/16 06:39:48;;;;;;;5.28;3.80;;;3.40;99.90;;;;;;5025939;28;20727;-42
2024/02/16 06:42:13;;;;;;;4.57;3.95;;;3.40;99.90;;;;;;5026696;28;20029;-41
2024/02/16 06:44:40;;;;;;;4.60;3.65;;;3.30;99.90;;;;;;5023044;28;20029;-39
2024/02/16 06:47:06;;;;;;;5.40;3.78;;;3.20;99.90;;;;;;5023591;28;20037;-38
2024/02/16 06:49:31;;;;;;;4.57;3.65;;;3.20;99.90;;;;;;5023890;28;20087;-41
2024/02/16 06:51:57;;;;;;;6.43;3.97;;;3.10;99.90;;;;;;5021422;28;20037;-41
2024/02/16 06:54:24;;;;;;;3.75;3.17;;;3.10;99.90;;;;;;5023780;28;20399;-37
2024/02/16 06:56:51;;;;;;;6.07;4.07;;;3.10;99.90;;;;;;5024570;28;20361;-40
2024/02/16 06:59:17;;;;;;;5.63;4.00;;;3.10;99.90;;;;;;5025251;28;20081;-39
2024/02/16 07:01:43;;;;;;;4.32;3.53;;;3.20;99.90;;;;;;5025022;28;20030;-38
2024/02/16 07:04:09;;;;;;;4.35;3.95;;;3.20;99.90;;;;;;5013038;28;20038;-40
2024/02/16 07:06:35;;;;;;;4.80;3.88;;;3.20;99.90;;;;;;5020705;28;20033;-40
2024/02/16 07:09:00;;;;;;;6.63;4.22;;;3.30;99.90;;;;;;5019610;28;20036;-40
2024/02/16 07:11:26;;;;;;;4.93;4.05;;;3.30;99.90;;;;;;5021214;28;20033;-36
2024/02/16 07:13:51;;;;;;;4.80;4.20;;;3.40;99.90;;;;;;5023272;28;20375;-41
2024/02/16 07:16:18;;;;;;;7.55;4.50;;;3.30;99.90;;;;;;5024925;28;20096;-39
2024/02/16 07:18:44;;;;;;;5.25;3.95;;;3.40;99.90;;;;;;5022176;28;20033;-39
2024/02/16 07:21:11;;;;;;;4.45;4.00;;;3.40;99.90;;;;;;5022189;28;20030;-40
2024/02/16 07:23:37;;;;;;;6.15;4.30;;;3.40;99.90;;;;;;5021398;28;20087;-39
2024/02/16 07:26:03;;;;;;;4.60;3.63;;;3.40;99.90;;;;;;5024250;28;20412;-38
2024/02/16 07:28:28;;;;;;;3.42;3.13;;;3.40;99.90;;;;;;5023852;28;20094;-41
2024/02/16 07:30:54;;;;;;;4.55;3.53;;;3.30;99.90;;;;;;5018759;28;20133;-41
2024/02/16 07:33:21;;;;;;;4.07;3.58;;;3.10;99.90;;;;;;5019469;28;20048;-41
2024/02/16 07:35:47;;;;;;;6.10;4.25;;;3.20;99.90;;;;;;5017003;28;20063;-41
2024/02/16 07:38:12;;;;;;;4.10;3.67;;;3.20;99.90;;;;;;5022743;28;20063;-40
2024/02/16 07:40:38;;;;;;;4.07;3.67;;;3.30;99.90;;;;;;5020916;28;20370;-34
2024/02/16 07:43:05;;;;;;;5.43;3.80;;;3.30;99.90;;;;;;5017848;28;20020;-35
2024/02/16 07:45:30;;;;;;;4.18;3.67;;;3.30;99.90;;;;;;5023901;28;20056;-35
2024/02/16 07:47:56;;;;;;;5.80;3.88;;;3.30;99.90;;;;;;5023173;28;20478;-37
2024/02/16 07:50:23;;;;;;;4.55;3.70;;;3.40;99.90;;;;;;5028295;28;20116;-32
2024/02/16 07:52:50;;;;;;;5.68;3.97;;;3.40;99.90;;;;;;5017559;28;20062;-35
2024/02/16 07:55:20;;;;;;;4.95;4.45;;;3.40;99.90;;;;;;5031087;28;20033;-33
2024/02/16 07:57:46;;;;;;;4.47;3.15;;;3.40;99.90;;;;;;5025729;28;20427;-35
2024/02/16 08:00:13;;;;;;;4.85;4.05;;;3.50;99.90;;;;;;5026410;28;20069;-34
2024/02/16 08:02:39;;;;;;;5.20;4.25;;;3.60;99.90;;;;;;5025566;28;20042;-34
2024/02/16 08:05:07;;;;;;;7.05;3.60;;;3.70;99.90;;;;;;5024559;28;20559;-37
2024/02/16 08:07:33;;;;;;;6.28;4.57;;;3.80;99.90;;;;;;5021254;28;20032;-33
2024/02/16 08:10:00;;;;;;;6.13;3.75;;;3.90;99.90;;;;;;5006856;28;20037;-38
2024/02/16 08:12:27;;;;;;;6.32;4.57;;;4.00;99.90;;;;;;5019079;28;20114;-35
2024/02/16 08:14:53;;;;;;;5.80;5.03;;;4.00;99.90;;;;;;5040166;28;20318;-37
2024/02/16 08:17:20;;;;;;;7.60;5.10;;;4.10;99.90;;;;;;5028228;28;20112;-34
2024/02/16 08:19:52;;;;;;;7.55;5.55;;;4.20;99.90;;;;;;5024597;28;20045;-34
2024/02/16 08:22:17;;;;;;;12.05;6.53;;;4.30;99.90;;;;;;5019307;28;20037;-33
2024/02/16 08:24:46;;;;;;;7.63;5.35;;;4.40;99.90;;;;;;5017222;28;20029;-34
2024/02/16 08:27:12;;;;;;;8.25;4.60;;;4.50;99.90;;;;;;5023417;28;20037;-33
2024/02/16 08:29:38;;;;;;;7.50;5.57;;;4.60;99.90;;;;;;5027674;28;20033;-34
2024/02/16 08:32:05;;;;;;;5.40;4.45;;;4.70;99.90;;;;;;5019618;28;20042;-33
2024/02/16 08:34:31;;;;;;;8.65;5.22;;;4.80;99.90;;;;;;5025482;28;20495;-35
2024/02/16 08:36:57;;;;;;;5.25;4.13;;;4.90;99.90;;;;;;5017489;28;20071;-33
2024/02/16 08:39:26;;;;;;;8.20;4.78;;;5.00;99.90;;;;;;5023915;28;20014;-32
2024/02/16 08:41:52;;;;;;;9.95;3.58;;;5.20;99.90;;;;;;5014136;28;20034;-34
2024/02/16 08:44:18;;;;;;;6.03;4.85;;;5.30;99.90;;;;;;5030863;28;20497;-33
2024/02/16 08:46:46;;;;;;;8.05;4.75;;;5.30;99.90;;;;;;5022772;28;20069;-33
2024/02/16 08:49:11;;;;;;;7.90;4.70;;;5.40;99.90;;;;;;5018111;28;20545;-33
2024/02/16 08:51:37;;;;;;;9.90;5.03;;;5.60;99.90;;;;;;5019142;28;20022;-35
2024/02/16 08:54:04;;;;;;;8.93;5.53;;;5.70;99.90;;;;;;5010007;28;20021;-33
2024/02/16 08:56:30;;;;;;;7.28;6.20;;;5.90;99.90;;;;;;5024942;28;20059;-36
2024/02/16 08:58:56;;;;;;;7.10;5.40;;;6.00;99.90;;;;;;5022255;28;20018;-35
2024/02/16 09:01:35;;;;;;;5.57;4.30;;;6.10;99.90;;;;;;5019492;28;20040;-37
2024/02/16 09:04:01;;;;;;;7.78;5.32;;;6.30;99.90;;;;;;5029035;28;20028;-40
2024/02/16 09:06:30;;;;;;;9.02;4.47;;;6.50;99.90;;;;;;5025176;28;20578;-40
2024/02/16 09:08:56;;;;;;;7.13;5.22;;;6.70;99.90;;;;;;5025808;28;20121;-40
2024/02/16 09:11:25;;;;;;;7.43;4.78;;;6.90;99.90;;;;;;5027924;28;20470;-40
2024/02/16 09:13:50;;;;;;;;;;;7.00;99.90;;;;;;5026903;28;20029;-37
2024/02/16 09:16:16;;;;;;;7.00;4.75;;;7.20;99.90;;;;;;5029190;28;19909;-39
2024/02/16 09:18:42;;;;;;;8.07;5.32;;;7.30;99.90;;;;;;5027649;28;20028;-40
2024/02/16 09:21:08;;;;;;;7.75;5.35;;;7.60;99.90;;;;;;5023753;28;20084;-38
2024/02/16 09:23:35;;;;;;;10.00;4.85;;;7.80;99.90;;;;;;5029088;28;20044;-39
2024/02/16 09:26:01;;;;;;;7.20;5.20;;;8.10;99.90;;;;;;5026376;28;20715;-39
2024/02/16 09:28:28;;;;;;;3.15;2.47;;;8.40;99.90;;;;;;5030988;28;20036;-39
2024/02/16 09:30:55;;;;;;;6.57;5.25;;;8.70;99.90;;;;;;5023278;28;20627;-37
2024/02/16 09:33:21;;;;;;;6.22;4.88;;;9.00;99.90;;;;;;5029552;28;20037;-37
2024/02/16 09:35:47;;;;;;;6.88;4.90;;;9.30;99.90;;;;;;5027449;28;20057;-39
2024/02/16 09:38:13;;;;;;;8.07;4.55;;;9.50;99.90;;;;;;5028668;28;20120;-39
2024/02/16 09:40:39;;;;;;;8.95;4.65;;;9.70;99.90;;;;;;5028595;28;20100;-39
2024/02/16 09:43:04;;;;;;;5.22;3.50;;;9.90;99.90;;;;;;5022928;28;20033;-38
2024/02/16 09:45:31;;;;;;;7.05;4.60;;;10.20;99.90;;;;;;5027362;28;20041;-40
2024/02/16 09:47:58;;;;;;;3.83;3.45;;;10.20;99.90;;;;;;5025268;28;20057;-40
2024/02/16 09:50:24;;;;;;;5.70;4.80;;;10.40;99.90;;;;;;5027347;28;20473;-40
2024/02/16 09:52:50;;;;;;;3.95;3.63;;;10.50;99.90;;;;;;5031500;28;20043;-36
2024/02/16 09:55:17;;;;;;;5.65;4.07;;;10.80;99.90;;;;;;5029884;28;20122;-39
2024/02/16 09:57:43;;;;;;;5.70;4.15;;;11.20;99.90;;;;;;5026800;28;20034;-38
2024/02/16 10:00:10;;;;;;;4.70;3.03;;;11.40;99.90;;;;;;5031021;28;20021;-38
2024/02/16 10:02:48;;;;;;;2.83;2.58;;;11.70;99.90;;;;;;5022920;28;20049;-35
2024/02/16 10:05:16;;;;;;;5.70;3.63;;;11.80;99.90;;;;;;5029164;28;20115;-36
2024/02/16 10:07:43;;;;;;;6.72;3.83;;;11.80;99.90;;;;;;5025275;28;20541;-33
2024/02/16 10:10:29;;;;;;;5.03;3.35;;;11.80;99.90;;;;;;5030172;28;20035;-33
2024/02/16 10:13:05;;;;;;;3.83;3.28;;;11.70;99.90;;;;;;5013879;28;20030;-39
2024/02/16 10:15:32;;;;;;;2.25;2.03;;;11.80;99.90;;;;;;5026478;28;20029;-37
2024/02/16 10:18:05;;;;;;;5.35;3.35;;;12.20;99.90;;;;;;5035277;28;20029;-40
2024/02/16 10:20:33;;;;;;;3.80;2.67;;;12.40;99.90;;;;;;5024257;28;20024;-41
2024/02/16 10:23:12;;;;;;;7.97;3.70;;;12.60;99.90;;;;;;5025030;28;20029;-40
2024/02/16 10:25:40;;;;;;;2.38;1.85;;;12.60;99.90;;;;;;5018587;28;20455;-39
2024/02/16 10:28:10;;;;;;;;;;;12.70;99.90;;;;;;5027879;28;20071;-40
2024/02/16 10:30:38;;;;;;;4.03;3.05;;;12.80;99.90;;;;;;5017900;28;19920;-40
2024/02/16 10:33:06;;;;;;;4.30;2.38;;;13.00;99.90;;;;;;5025663;28;20034;-41
2024/02/16 10:35:36;;;;;;;7.25;3.50;;;13.30;99.90;;;;;;5025314;28;20045;-41
2024/02/16 10:38:11;;;;;;;2.10;2.00;;;13.10;99.90;;;;;;5030879;28;20412;-41
2024/02/16 10:40:41;;;;;;;4.10;2.33;;;13.20;99.90;;;;;;5027331;28;20030;-40
2024/02/16 10:43:09;;;;;;;2.65;2.35;;;13.30;99.90;;;;;;5024328;28;20504;-40
2024/02/16 10:45:37;;;;;;;2.70;2.35;;;13.20;99.90;;;;;;5026867;28;20699;-40
2024/02/16 10:48:07;;;;;;;7.53;3.85;;;13.40;99.90;;;;;;5023277;28;20040;-39
2024/02/16 10:50:35;;;;;;;2.50;2.28;;;13.50;99.90;;;;;;5024441;28;20029;-39
2024/02/16 10:53:08;;;;;;;3.97;2.80;;;13.70;99.90;;;;;;5023942;28;20173;-40
2024/02/16 10:55:35;;;;;;;3.47;2.25;;;13.80;99.90;;;;;;5025655;28;20108;-40
2024/02/16 10:58:01;;;;;;;3.80;2.63;;;13.90;99.90;;;;;;5025158;28;20072;-39
2024/02/16 11:00:26;;;;;;;2.65;2.20;;;14.00;99.90;;;;;;5024339;28;20017;-40
2024/02/16 11:02:52;;;;;;;4.20;2.70;;;14.00;99.90;;;;;;5017560;28;20037;-36
2024/02/16 11:05:21;;;;;;;4.70;2.65;;;13.90;99.90;;;;;;5028210;28;20439;-40
2024/02/16 11:07:47;;;;;;;5.07;2.65;;;13.90;99.90;;;;;;5023837;28;20064;-39
2024/02/16 11:10:13;;;;;;;4.20;3.00;;;13.80;99.90;;;;;;5024731;28;20636;-32
2024/02/16 11:12:46;;;;;;;4.63;2.83;;;13.70;99.90;;;;;;5025620;28;20048;-41
2024/02/16 11:15:13;;;;;;;3.25;2.33;;;13.70;99.90;;;;;;5012112;28;20033;-39
2024/02/16 11:17:39;;;;;;;4.22;2.92;;;13.80;99.90;;;;;;5024643;28;20040;-41
2024/02/16 11:20:07;;;;;;;3.78;2.92;;;13.80;99.90;;;;;;5023618;28;20132;-40
2024/02/16 11:22:38;;;;;;;2.20;1.88;;;13.80;99.90;;;;;;5037587;28;20036;-39
2024/02/16 11:25:05;;;;;;;2.55;1.85;;;14.00;99.90;;;;;;5024388;28;20446;-42
2024/02/16 11:27:34;;;;;;;6.20;2.90;;;14.10;99.90;;;;;;5021863;28;20021;-40
2024/02/16 11:30:00;;;;;;;2.80;2.60;;;14.10;99.90;;;;;;5000685;28;20025;-40
2024/02/16 11:32:25;;;;;;;3.70;2.67;;;14.10;99.90;;;;;;5025772;28;20552;-38
2024/02/16 11:34:51;;;;;;;3.65;2.60;;;14.10;99.90;;;;;;5029390;28;20033;-37
2024/02/16 11:37:17;;;;;;;3.13;2.55;;;14.10;99.90;;;;;;5027142;28;20394;-39
2024/02/16 11:39:44;;;;;;;1.80;1.70;;;14.10;99.90;;;;;;5029064;28;20033;-41
2024/02/16 11:42:12;;;;;;;3.70;2.17;;;14.20;99.90;;;;;;5023090;28;20863;-40
2024/02/16 11:44:40;;;;;;;5.40;2.80;;;14.20;99.90;;;;;;5026581;28;20729;-40
2024/02/16 11:47:12;;;;;;;4.63;2.95;;;14.10;99.90;;;;;;5028443;28;20037;-40
2024/02/16 11:49:37;;;;;;;2.83;2.50;;;14.20;99.90;;;;;;5016311;28;20042;-41
2024/02/16 11:52:07;;;;;;;3.28;2.55;;;14.10;99.90;;;;;;5023535;28;20555;-39
2024/02/16 11:54:33;;;;;;;3.75;2.78;;;14.10;99.90;;;;;;5013900;28;20041;-40
2024/02/16 11:56:59;;;;;;;3.80;2.47;;;14.20;99.90;;;;;;5022132;28;20025;-38
2024/02/16 11:59:25;;;;;;;4.30;2.63;;;14.20;99.90;;;;;;5024731;28;20030;-39
2024/02/16 12:01:55;;;;;;;1.95;1.60;;;14.30;99.90;;;;;;5023190;28;20034;-40
2024/02/16 12:04:25;;;;;;;3.13;2.53;;;14.40;99.90;;;;;;5018342;28;20184;-41
2024/02/16 12:06:55;;;;;;;4.00;2.83;;;14.40;99.90;;;;;;5021309;28;20540;-38
2024/02/16 12:09:21;;;;;;;3.58;2.60;;;14.50;99.90;;;;;;5029278;28;20029;-40
2024/02/16 12:11:48;;;;;;;2.40;2.20;;;14.40;99.90;;;;;;5020219;28;20083;-38
2024/02/16 12:14:16;;;;;;;4.77;2.60;;;14.50;99.90;;;;;;5021911;28;20467;-41
2024/02/16 12:16:41;;;;;;;3.03;2.70;;;14.50;99.90;;;;;;5023278;28;20026;-40
2024/02/16 12:19:08;;;;;;;5.97;2.78;;;14.60;99.90;;;;;;5021709;28;20034;-38
2024/02/16 12:21:34;;;;;;;4.05;2.35;;;14.60;99.90;;;;;;5003183;28;20018;-38
2024/02/16 12:24:00;;;;;;;3.20;2.30;;;14.60;99.90;;;;;;5022911;28;20057;-37
2024/02/16 12:26:26;;;;;;;3.10;2.80;;;14.70;99.90;;;;;;5023895;28;20383;-39
2024/02/16 12:28:51;;;;;;;3.72;2.72;;;14.70;99.80;;;;;;5021212;28;20033;-36
2024/02/16 12:31:26;;;;;;;2.97;2.70;;;14.70;99.90;;;;;;5029341;28;20372;-40
2024/02/16 12:33:52;;;;;;;3.78;2.45;;;14.60;99.90;;;;;;5027741;28;20060;-40
2024/02/16 12:36:18;;;;;;;4.85;2.88;;;14.70;99.90;;;;;;5036523;28;20038;-39
2024/02/16 12:38:44;;;;;;;6.32;2.90;;;14.70;99.60;;;;;;5031287;28;20018;-40
2024/02/16 12:41:10;;;;;;;3.45;3.10;;;14.60;99.80;;;;;;5026452;28;20025;-39
2024/02/16 12:43:35;;;;;;;4.38;3.03;;;14.70;99.90;;;;;;5026545;28;20120;-40
2024/02/16 12:46:03;;;;;;;5.30;2.90;;;14.70;99.90;;;;;;5035569;28;20594;-42
2024/02/16 12:48:29;;;;;;;5.22;3.55;;;14.70;99.90;;;;;;5026378;28;20045;-37
2024/02/16 12:50:55;;;;;;;4.72;2.65;;;14.80;99.90;;;;;;5031575;28;20060;-36
2024/02/16 12:53:24;;;;;;;3.38;2.15;;;14.70;99.90;;;;;;5027819;28;20063;-38
2024/02/16 12:55:50;;;;;;;4.15;2.90;;;14.70;98.90;;;;;;5027050;28;20030;-37